Time;durP1;ratioP1;P1;durP2;ratioP2;P2;SDS_P1;SDS_P2;PMS_P1;PMS_P2;Temp;Humidity;BMP_temperature;BMP_pressure;BME280_temperature;BME280_humidity;BME280_pressure;Samples;Min_cycle;Max_cycle;Signal;HPM_P1;HPM_P2
2022/10/14 00:01:09;;;;;;;27.25;10.35;;;11.50;99.90;;;;;;4973429;28;20467;-82
2022/10/14 00:03:36;;;;;;;25.85;10.88;;;11.50;99.90;;;;;;4971972;28;20033;-83
2022/10/14 00:06:14;;;;;;;28.58;11.25;;;11.50;99.90;;;;;;4972694;28;20025;-83
2022/10/14 00:08:41;;;;;;;30.23;10.35;;;11.50;99.90;;;;;;4973003;28;20113;-83
2022/10/14 00:11:12;;;;;;;33.78;11.70;;;11.50;99.90;;;;;;4974004;28;20467;-83
2022/10/14 00:13:38;;;;;;;26.52;11.25;;;11.50;99.90;;;;;;4973816;28;20039;-83
2022/10/14 00:16:05;;;;;;;26.95;9.90;;;11.40;99.90;;;;;;4974313;28;20023;-83
2022/10/14 00:18:35;;;;;;;36.72;12.13;;;11.40;99.90;;;;;;4973764;28;20027;-83
2022/10/14 00:21:02;;;;;;;22.58;10.50;;;11.40;99.90;;;;;;4973936;28;20089;-83
2022/10/14 00:23:28;;;;;;;27.92;11.15;;;11.40;99.90;;;;;;4975148;28;20023;-83
2022/10/14 00:25:56;;;;;;;24.85;10.75;;;11.40;99.90;;;;;;4974751;28;20526;-83
2022/10/14 00:28:22;;;;;;;32.75;11.88;;;11.40;99.90;;;;;;4975187;28;20063;-83
2022/10/14 00:30:58;;;;;;;24.65;10.15;;;11.30;99.90;;;;;;4974031;28;20427;-83
2022/10/14 00:33:25;;;;;;;25.73;9.98;;;11.30;99.90;;;;;;4973834;28;20034;-83
2022/10/14 00:35:59;;;;;;;26.75;10.63;;;11.30;99.90;;;;;;4973467;28;20014;-82
2022/10/14 00:38:28;;;;;;;30.92;10.57;;;11.40;99.90;;;;;;4972296;28;20034;-83
2022/10/14 00:40:54;;;;;;;25.42;10.25;;;11.30;99.90;;;;;;4974272;28;20033;-83
2022/10/14 00:43:21;;;;;;;24.02;9.75;;;11.30;99.90;;;;;;4992266;28;20066;-82
2022/10/14 00:45:47;;;;;;;27.63;10.88;;;11.40;99.90;;;;;;4994644;28;20015;-82
2022/10/14 00:48:14;;;;;;;21.70;10.18;;;11.40;99.90;;;;;;4980999;28;20038;-82
2022/10/14 00:50:43;;;;;;;25.58;10.45;;;11.40;99.90;;;;;;4975167;28;20478;-81
2022/10/14 00:53:14;;;;;;;31.42;10.32;;;11.40;99.90;;;;;;4974730;28;20046;-82
2022/10/14 00:55:41;;;;;;;21.90;8.95;;;11.30;99.90;;;;;;4974881;28;20057;-82
2022/10/14 00:58:09;;;;;;;28.17;8.95;;;11.30;99.90;;;;;;4981432;28;20023;-81
2022/10/14 01:00:35;;;;;;;20.98;8.85;;;11.30;99.90;;;;;;4980825;28;20039;-81
2022/10/14 01:03:18;;;;;;;24.33;8.68;;;11.30;99.90;;;;;;4958336;28;20118;-82
2022/10/14 01:06:03;;;;;;;23.17;8.95;;;11.20;99.90;;;;;;4986660;28;20091;-82
2022/10/14 01:08:43;;;;;;;27.90;9.20;;;11.10;99.90;;;;;;4973419;28;20034;-82
2022/10/14 01:11:28;;;;;;;21.33;8.85;;;11.10;99.90;;;;;;4967923;28;20110;-81
2022/10/14 01:14:14;;;;;;;22.55;9.05;;;11.00;99.90;;;;;;4973304;28;20085;-81
2022/10/14 01:16:56;;;;;;;15.48;8.35;;;11.00;99.90;;;;;;4973542;28;20027;-82
2022/10/14 01:20:05;;;;;;;13.70;7.55;;;11.00;99.90;;;;;;4958734;28;20122;-81
2022/10/14 01:22:35;;;;;;;17.30;8.20;;;11.00;99.90;;;;;;4969627;28;20054;-81
2022/10/14 01:25:06;;;;;;;16.40;7.97;;;11.00;99.90;;;;;;4974033;28;20046;-82
2022/10/14 01:27:58;;;;;;;13.18;7.90;;;11.00;99.90;;;;;;4973949;28;20031;-82
2022/10/14 01:30:36;;;;;;;15.48;8.23;;;11.00;99.90;;;;;;4974930;28;20475;-81
2022/10/14 01:33:26;;;;;;;13.35;7.45;;;11.00;99.90;;;;;;4990057;28;20109;-81
2022/10/14 01:36:17;;;;;;;14.30;8.02;;;11.00;99.90;;;;;;4973603;28;20038;-81
2022/10/14 01:38:59;;;;;;;15.80;7.78;;;11.00;99.90;;;;;;4973852;28;20122;-82
2022/10/14 01:41:33;;;;;;;14.63;7.20;;;11.10;99.90;;;;;;4973796;28;20058;-81
2022/10/14 01:44:04;;;;;;;14.95;7.57;;;11.10;99.90;;;;;;4973893;28;20027;-81
2022/10/14 01:46:32;;;;;;;14.55;7.55;;;11.10;99.90;;;;;;4973578;28;20023;-82
2022/10/14 01:49:02;;;;;;;16.05;8.07;;;11.10;99.90;;;;;;4989548;28;20043;-82
2022/10/14 01:51:48;;;;;;;15.38;8.85;;;11.10;99.90;;;;;;4974658;28;20105;-82
2022/10/14 01:54:29;;;;;;;16.05;9.25;;;11.10;99.90;;;;;;4952124;28;20050;-82
2022/10/14 01:56:58;;;;;;;19.80;8.75;;;11.20;99.90;;;;;;4962525;28;20376;-82
2022/10/14 01:59:25;;;;;;;17.45;9.75;;;11.20;99.90;;;;;;4963330;28;20034;-82
2022/10/14 02:01:51;;;;;;;22.67;9.52;;;11.20;99.90;;;;;;4968241;28;20019;-82
2022/10/14 02:04:22;;;;;;;22.08;10.55;;;11.20;99.90;;;;;;4967308;28;20034;-82
2022/10/14 02:06:58;;;;;;;23.55;10.10;;;11.20;99.90;;;;;;4976164;28;20462;-81
2022/10/14 02:09:47;;;;;;;19.33;10.20;;;11.20;99.90;;;;;;4989939;28;20031;-82
2022/10/14 02:12:34;;;;;;;18.73;10.70;;;11.20;99.90;;;;;;4959013;28;20057;-82
2022/10/14 02:15:27;;;;;;;20.95;10.07;;;11.20;99.90;;;;;;4958164;28;20047;-82
2022/10/14 02:18:29;;;;;;;19.92;10.35;;;11.20;99.90;;;;;;4973403;28;20030;-81
2022/10/14 02:21:18;;;;;;;16.50;8.90;;;11.20;99.90;;;;;;4970379;28;20473;-82
2022/10/14 02:23:49;;;;;;;23.73;9.65;;;11.30;99.90;;;;;;4973007;28;20031;-82
2022/10/14 02:26:16;;;;;;;20.02;10.93;;;11.30;99.90;;;;;;4973335;28;20019;-82
2022/10/14 02:28:45;;;;;;;19.15;10.50;;;11.30;99.90;;;;;;4964199;28;20089;-82
2022/10/14 02:31:14;;;;;;;20.48;10.70;;;11.30;99.90;;;;;;4977100;28;20039;-82
2022/10/14 02:33:42;;;;;;;20.88;10.93;;;11.30;99.90;;;;;;4991821;28;20098;-81
2022/10/14 02:36:12;;;;;;;22.23;11.07;;;11.30;99.90;;;;;;4995167;28;20015;-81
2022/10/14 02:38:41;;;;;;;20.55;11.00;;;11.30;99.90;;;;;;4987693;28;20532;-81
2022/10/14 02:41:13;;;;;;;21.13;10.77;;;11.40;99.90;;;;;;4977961;28;20085;-82
2022/10/14 02:43:39;;;;;;;19.15;11.07;;;11.30;99.90;;;;;;4976857;28;20097;-82
2022/10/14 02:46:05;;;;;;;20.25;11.20;;;11.40;99.90;;;;;;4978724;28;20023;-82
2022/10/14 02:48:31;;;;;;;21.60;11.45;;;11.40;99.90;;;;;;4976993;28;20031;-83
2022/10/14 02:50:57;;;;;;;20.27;10.95;;;11.40;99.90;;;;;;4976422;28;20082;-81
2022/10/14 02:53:23;;;;;;;20.02;11.98;;;11.40;99.90;;;;;;4977111;28;20489;-82
2022/10/14 02:55:48;;;;;;;23.02;12.43;;;11.40;99.90;;;;;;4976585;28;20023;-82
2022/10/14 02:58:14;;;;;;;24.67;11.93;;;11.40;99.90;;;;;;4976235;28;20027;-82
2022/10/14 03:00:40;;;;;;;25.60;12.73;;;11.50;99.90;;;;;;4977837;28;20042;-82
2022/10/14 03:03:06;;;;;;;23.73;12.32;;;11.50;99.90;;;;;;4964453;28;20019;-82
2022/10/14 03:05:32;;;;;;;25.45;13.20;;;11.50;99.90;;;;;;4976388;28;20037;-82
2022/10/14 03:07:57;;;;;;;23.35;12.18;;;11.50;99.90;;;;;;4976234;28;20041;-81
2022/10/14 03:10:24;;;;;;;24.50;11.57;;;11.50;99.90;;;;;;4977477;28;20031;-82
2022/10/14 03:12:50;;;;;;;24.50;13.32;;;11.50;99.90;;;;;;4981873;28;20360;-82
2022/10/14 03:15:15;;;;;;;25.88;13.05;;;11.50;99.90;;;;;;4983576;28;20051;-82
2022/10/14 03:17:41;;;;;;;24.13;13.73;;;11.50;99.90;;;;;;4978024;28;20551;-81
2022/10/14 03:20:07;;;;;;;27.25;12.70;;;11.50;99.90;;;;;;4978829;28;20105;-81
2022/10/14 03:22:33;;;;;;;23.25;12.73;;;11.50;99.90;;;;;;4992039;28;20529;-82
2022/10/14 03:24:59;;;;;;;24.77;13.73;;;11.50;99.90;;;;;;4991732;28;20018;-81
2022/10/14 03:27:27;;;;;;;23.63;12.93;;;11.60;99.90;;;;;;4975923;28;20441;-82
2022/10/14 03:29:54;;;;;;;24.10;12.73;;;11.60;99.90;;;;;;4975725;28;20035;-82
2022/10/14 03:32:20;;;;;;;24.95;12.82;;;11.60;99.90;;;;;;4975606;28;20467;-82
2022/10/14 03:34:45;;;;;;;25.98;14.10;;;11.60;99.90;;;;;;4959502;28;20023;-82
2022/10/14 03:37:11;;;;;;;29.13;13.93;;;11.60;99.90;;;;;;4975787;28;20026;-82
2022/10/14 03:39:37;;;;;;;33.95;15.30;;;11.60;99.90;;;;;;4973837;28;20031;-82
2022/10/14 03:42:03;;;;;;;32.22;15.48;;;11.60;99.90;;;;;;4975351;28;20450;-82
2022/10/14 03:44:29;;;;;;;30.17;15.65;;;11.60;99.90;;;;;;4975478;28;20019;-82
2022/10/14 03:46:54;;;;;;;26.75;13.77;;;11.60;99.90;;;;;;4975022;28;20038;-82
2022/10/14 03:49:20;;;;;;;30.52;15.35;;;11.60;99.90;;;;;;4975442;28;20027;-81
2022/10/14 03:51:46;;;;;;;30.55;14.38;;;11.60;99.90;;;;;;4975290;28;20023;-82
2022/10/14 03:54:12;;;;;;;29.08;13.48;;;11.60;99.90;;;;;;4959125;28;20026;-81
2022/10/14 03:56:38;;;;;;;24.90;13.27;;;11.60;99.90;;;;;;4959370;28;20531;-82
2022/10/14 03:59:04;;;;;;;29.73;12.60;;;11.70;99.90;;;;;;4974781;28;20027;-82
2022/10/14 04:01:31;;;;;;;24.95;12.73;;;11.70;99.90;;;;;;4970578;28;20059;-82
2022/10/14 04:03:58;;;;;;;26.75;12.70;;;11.70;99.90;;;;;;4968191;28;20027;-81
2022/10/14 04:06:24;;;;;;;27.38;13.75;;;11.70;99.90;;;;;;4976640;28;20363;-82
2022/10/14 04:08:49;;;;;;;25.13;12.55;;;11.70;99.90;;;;;;4974732;28;20062;-82
2022/10/14 04:11:16;;;;;;;27.13;13.68;;;11.70;99.90;;;;;;4974449;28;20053;-81
2022/10/14 04:13:44;;;;;;;26.38;13.63;;;11.80;99.90;;;;;;4974579;28;20498;-82
2022/10/14 04:16:10;;;;;;;30.30;14.40;;;11.80;99.90;;;;;;4975002;28;20030;-82
2022/10/14 04:18:37;;;;;;;29.30;13.82;;;11.90;99.90;;;;;;4975117;28;20045;-81
2022/10/14 04:21:09;;;;;;;30.05;15.02;;;11.80;99.90;;;;;;4975357;28;20038;-81
2022/10/14 04:23:35;;;;;;;27.23;13.98;;;11.80;99.90;;;;;;4989872;28;20062;-80
2022/10/14 04:26:07;;;;;;;26.65;14.20;;;11.80;99.90;;;;;;4994101;28;20058;-81
2022/10/14 04:28:33;;;;;;;25.30;12.98;;;11.90;99.90;;;;;;4993430;28;20007;-81
2022/10/14 04:30:59;;;;;;;27.40;13.25;;;11.90;99.90;;;;;;4977872;28;20037;-82
2022/10/14 04:33:25;;;;;;;24.85;13.40;;;11.90;99.90;;;;;;4975483;28;20027;-82
2022/10/14 04:35:59;;;;;;;23.92;13.10;;;11.90;99.90;;;;;;4975582;28;20023;-82
2022/10/14 04:38:25;;;;;;;25.60;13.57;;;11.90;99.90;;;;;;4974830;28;20050;-82
2022/10/14 04:40:51;;;;;;;31.08;14.13;;;11.90;99.90;;;;;;4974813;28;20109;-82
2022/10/14 04:43:19;;;;;;;29.10;14.27;;;11.90;99.90;;;;;;4975405;28;20494;-82
2022/10/14 04:45:45;;;;;;;26.95;13.98;;;11.90;99.90;;;;;;4974475;28;20030;-82
2022/10/14 04:48:14;;;;;;;27.88;13.15;;;11.90;99.90;;;;;;4958358;28;20051;-82
2022/10/14 04:50:40;;;;;;;27.92;14.57;;;12.00;99.90;;;;;;4975131;28;20117;-82
2022/10/14 04:53:07;;;;;;;29.80;14.43;;;11.90;99.90;;;;;;4974136;28;20561;-82
2022/10/14 04:55:32;;;;;;;28.08;14.80;;;11.90;99.90;;;;;;4974060;28;20169;-82
2022/10/14 04:57:58;;;;;;;28.90;15.52;;;12.00;99.90;;;;;;4974245;28;20102;-82
2022/10/14 05:00:24;;;;;;;28.85;14.43;;;12.00;99.90;;;;;;4966057;28;20472;-82
2022/10/14 05:02:49;;;;;;;27.30;14.85;;;12.00;99.90;;;;;;4962261;28;20458;-82
2022/10/14 05:05:16;;;;;;;29.20;15.52;;;12.00;99.90;;;;;;4974208;28;20026;-82
2022/10/14 05:07:42;;;;;;;25.17;14.23;;;12.00;99.90;;;;;;4974143;28;20031;-82
2022/10/14 05:10:12;;;;;;;28.38;14.68;;;12.00;99.90;;;;;;4975610;28;20515;-82
2022/10/14 05:12:38;;;;;;;26.10;14.90;;;12.00;99.90;;;;;;4973703;28;20119;-82
2022/10/14 05:15:06;;;;;;;28.98;15.23;;;12.00;99.90;;;;;;4990425;28;20046;-82
2022/10/14 05:17:32;;;;;;;29.80;15.82;;;12.10;99.90;;;;;;4974307;28;20035;-83
2022/10/14 05:19:58;;;;;;;26.70;15.20;;;12.10;99.90;;;;;;4973489;28;20023;-82
2022/10/14 05:22:24;;;;;;;26.52;14.65;;;12.10;99.90;;;;;;4973766;28;20684;-83
2022/10/14 05:24:50;;;;;;;27.27;14.95;;;12.10;99.90;;;;;;4974007;28;20522;-82
2022/10/14 05:27:16;;;;;;;31.85;17.55;;;12.10;99.90;;;;;;4961072;28;20039;-82
2022/10/14 05:29:42;;;;;;;27.67;15.75;;;12.10;99.90;;;;;;4979390;28;20042;-82
2022/10/14 05:32:08;;;;;;;30.75;15.73;;;12.10;99.90;;;;;;4973019;28;20023;-82
2022/10/14 05:34:36;;;;;;;28.58;15.20;;;12.20;99.90;;;;;;4973405;28;20035;-82
2022/10/14 05:37:02;;;;;;;26.65;14.30;;;12.20;99.90;;;;;;4972393;28;20034;-83
2022/10/14 05:39:30;;;;;;;23.73;14.27;;;12.20;99.90;;;;;;4972632;28;20034;-83
2022/10/14 05:41:56;;;;;;;22.35;13.35;;;12.20;99.90;;;;;;4972655;28;20030;-83
2022/10/14 05:44:22;;;;;;;25.30;14.23;;;12.20;99.90;;;;;;4972001;28;20027;-81
2022/10/14 05:46:48;;;;;;;26.75;15.32;;;12.20;99.90;;;;;;4972590;28;20023;-82
2022/10/14 05:49:14;;;;;;;20.55;12.73;;;12.30;99.90;;;;;;4956903;28;20085;-82
2022/10/14 05:51:42;;;;;;;25.33;13.30;;;12.30;99.90;;;;;;4956818;28;20490;-82
2022/10/14 05:54:08;;;;;;;20.02;11.63;;;12.30;99.90;;;;;;4956698;28;20023;-82
2022/10/14 05:56:34;;;;;;;22.58;13.10;;;12.30;99.90;;;;;;4971915;28;20030;-83
2022/10/14 05:59:00;;;;;;;22.17;12.40;;;12.30;99.90;;;;;;4972360;28;20470;-82
2022/10/14 06:01:27;;;;;;;23.15;12.45;;;12.40;99.90;;;;;;4969798;28;20379;-82
2022/10/14 06:03:52;;;;;;;20.50;11.80;;;12.40;99.90;;;;;;4968085;28;20031;-82
2022/10/14 06:06:19;;;;;;;22.58;12.68;;;12.40;99.90;;;;;;4976080;28;20030;-81
2022/10/14 06:08:45;;;;;;;21.67;12.30;;;12.40;99.90;;;;;;4959860;28;20031;-82
2022/10/14 06:11:14;;;;;;;20.17;11.85;;;12.40;99.90;;;;;;4976014;28;20041;-82
2022/10/14 06:13:44;;;;;;;19.58;12.63;;;12.50;99.90;;;;;;4960380;28;20095;-83
2022/10/14 06:16:12;;;;;;;19.70;12.20;;;12.50;99.90;;;;;;4992017;28;20045;-82
2022/10/14 06:18:38;;;;;;;18.98;11.90;;;12.50;99.90;;;;;;4980700;28;20045;-81
2022/10/14 06:21:05;;;;;;;18.25;11.95;;;12.50;99.90;;;;;;4992902;28;20035;-81
2022/10/14 06:23:35;;;;;;;16.02;12.07;;;12.50;99.90;;;;;;4983660;28;20023;-82
2022/10/14 06:26:07;;;;;;;17.92;12.70;;;12.60;99.90;;;;;;4967194;28;20046;-82
2022/10/14 06:28:33;;;;;;;15.02;11.00;;;12.60;99.90;;;;;;4992281;28;20125;-82
2022/10/14 06:31:02;;;;;;;15.57;11.90;;;12.60;99.90;;;;;;4976781;28;20165;-83
2022/10/14 06:33:33;;;;;;;16.98;12.73;;;12.70;99.90;;;;;;4976427;28;20026;-82
2022/10/14 06:36:04;;;;;;;17.88;13.77;;;12.70;99.90;;;;;;4976859;28;20031;-82
2022/10/14 06:38:30;;;;;;;17.08;12.93;;;12.70;99.90;;;;;;4973279;28;20034;-83
2022/10/14 06:40:56;;;;;;;17.50;13.85;;;12.80;99.90;;;;;;4973696;28;20015;-83
2022/10/14 06:43:22;;;;;;;17.67;14.55;;;12.80;99.90;;;;;;4990824;28;20117;-83
2022/10/14 06:45:48;;;;;;;18.15;14.60;;;12.80;99.90;;;;;;4971713;28;20015;-83
2022/10/14 06:48:14;;;;;;;19.27;13.07;;;12.80;99.90;;;;;;4975258;28;20042;-82
2022/10/14 06:50:44;;;;;;;14.52;11.70;;;12.90;99.90;;;;;;4971464;28;20115;-82
2022/10/14 06:53:10;;;;;;;16.25;12.50;;;12.90;99.90;;;;;;4976632;28;20114;-82
2022/10/14 06:55:36;;;;;;;17.50;13.55;;;12.90;99.90;;;;;;4974112;28;20130;-82
2022/10/14 06:58:01;;;;;;;18.40;15.15;;;12.90;99.90;;;;;;4975131;28;20030;-82
2022/10/14 07:00:27;;;;;;;16.98;13.00;;;12.90;99.90;;;;;;4974534;28;20042;-82
2022/10/14 07:02:53;;;;;;;19.08;15.18;;;12.90;99.90;;;;;;4973829;28;20027;-83
2022/10/14 07:05:19;;;;;;;20.63;16.13;;;12.90;99.90;;;;;;4959110;28;20467;-83
2022/10/14 07:07:45;;;;;;;17.77;13.23;;;13.00;99.90;;;;;;4958952;28;20069;-82
2022/10/14 07:10:11;;;;;;;17.33;13.68;;;13.00;99.90;;;;;;4975725;28;20431;-83
2022/10/14 07:12:37;;;;;;;19.00;14.82;;;13.00;99.90;;;;;;4974432;28;20355;-82
2022/10/14 07:15:06;;;;;;;17.10;13.70;;;13.00;99.90;;;;;;4976079;28;20057;-83
2022/10/14 07:17:35;;;;;;;17.50;12.85;;;13.00;99.90;;;;;;4976151;28;20035;-85
2022/10/14 07:20:00;;;;;;;19.98;15.43;;;13.00;99.90;;;;;;4974877;28;20027;-85
2022/10/14 07:22:29;;;;;;;16.73;13.73;;;13.00;99.90;;;;;;4974830;28;20077;-85
2022/10/14 07:24:57;;;;;;;15.35;12.73;;;13.10;99.90;;;;;;4974822;28;20027;-83
2022/10/14 07:27:25;;;;;;;16.77;13.82;;;13.10;99.90;;;;;;4975243;28;20497;-84
2022/10/14 07:29:51;;;;;;;14.52;11.98;;;13.10;99.90;;;;;;4974811;28;20029;-84
2022/10/14 07:32:17;;;;;;;15.73;12.43;;;13.20;99.90;;;;;;4942522;28;20031;-83
2022/10/14 07:34:43;;;;;;;18.08;13.40;;;13.20;99.90;;;;;;4974976;28;20031;-84
2022/10/14 07:37:09;;;;;;;16.95;12.77;;;13.20;99.90;;;;;;4958653;28;20038;-83
2022/10/14 07:39:34;;;;;;;15.50;11.60;;;13.20;99.90;;;;;;4959180;28;20027;-83
2022/10/14 07:42:02;;;;;;;17.08;11.88;;;13.30;99.90;;;;;;4978935;28;20089;-84
2022/10/14 07:44:28;;;;;;;14.65;10.48;;;13.30;99.90;;;;;;4982292;28;20030;-83
2022/10/14 07:46:54;;;;;;;14.38;11.25;;;13.30;99.90;;;;;;4977356;28;20023;-84
2022/10/14 07:49:22;;;;;;;16.80;13.32;;;13.30;99.90;;;;;;4974983;28;20469;-83
2022/10/14 07:51:48;;;;;;;14.18;11.27;;;13.30;99.90;;;;;;4990928;28;20039;-84
2022/10/14 07:54:19;;;;;;;13.48;10.60;;;13.40;99.90;;;;;;4976463;28;20482;-84
2022/10/14 07:56:49;;;;;;;18.65;12.77;;;13.30;99.90;;;;;;4974402;28;20038;-83
2022/10/14 07:59:19;;;;;;;16.00;12.00;;;13.40;99.90;;;;;;4961176;28;20054;-83
2022/10/14 08:01:47;;;;;;;15.98;12.55;;;13.40;99.90;;;;;;4974764;28;20082;-83
2022/10/14 08:04:14;;;;;;;14.20;10.75;;;13.40;99.90;;;;;;4974404;28;20030;-85
2022/10/14 08:06:42;;;;;;;13.88;10.60;;;13.40;99.90;;;;;;4975698;28;20026;-83
2022/10/14 08:09:10;;;;;;;14.57;12.15;;;13.50;99.90;;;;;;4974174;28;20516;-83
2022/10/14 08:11:36;;;;;;;12.68;10.65;;;13.50;99.90;;;;;;4975213;28;20023;-84
2022/10/14 08:14:06;;;;;;;14.13;11.52;;;13.60;99.90;;;;;;4973400;28;20043;-84
2022/10/14 08:16:36;;;;;;;14.38;11.82;;;13.60;99.90;;;;;;4958042;28;20034;-83
2022/10/14 08:19:05;;;;;;;12.68;10.15;;;13.60;99.90;;;;;;4980570;28;20157;-82
2022/10/14 08:21:32;;;;;;;11.95;10.07;;;13.60;99.90;;;;;;4973089;28;20045;-81
2022/10/14 08:23:58;;;;;;;10.32;8.50;;;13.60;99.90;;;;;;4988569;28;20035;-81
2022/10/14 08:26:54;;;;;;;11.48;9.35;;;13.70;99.90;;;;;;4967025;28;20023;-81
2022/10/14 08:29:21;;;;;;;10.65;8.88;;;13.70;99.90;;;;;;4974824;28;20042;-83
2022/10/14 08:31:50;;;;;;;11.80;9.82;;;13.70;99.90;;;;;;4974631;28;20375;-83
2022/10/14 08:34:20;;;;;;;11.95;9.43;;;13.80;99.90;;;;;;4975691;28;20081;-83
2022/10/14 08:36:47;;;;;;;11.85;9.73;;;13.70;99.90;;;;;;4974873;28;20087;-82
2022/10/14 08:39:13;;;;;;;9.80;8.20;;;13.70;99.90;;;;;;4974274;28;20038;-83
2022/10/14 08:41:39;;;;;;;9.35;7.38;;;13.80;99.90;;;;;;4957845;28;20031;-83
2022/10/14 08:44:45;;;;;;;10.02;8.23;;;13.80;99.90;;;;;;4973081;28;20371;-83
2022/10/14 08:47:16;;;;;;;12.52;9.02;;;13.80;99.90;;;;;;4973956;28;20039;-83
2022/10/14 08:49:57;;;;;;;11.50;9.13;;;13.80;99.90;;;;;;4973598;28;20050;-83
2022/10/14 08:52:37;;;;;;;12.25;9.45;;;13.90;99.90;;;;;;4974542;28;20031;-83
2022/10/14 08:55:30;;;;;;;10.23;8.05;;;13.90;99.90;;;;;;4989266;28;20385;-82
2022/10/14 08:58:04;;;;;;;8.38;6.85;;;13.90;99.90;;;;;;4972677;28;20483;-83
2022/10/14 09:00:34;;;;;;;10.60;8.90;;;14.00;99.90;;;;;;4973582;28;20034;-85
2022/10/14 09:03:09;;;;;;;12.43;9.93;;;14.00;99.90;;;;;;4957476;28;20031;-84
2022/10/14 09:05:40;;;;;;;10.18;8.70;;;14.00;99.90;;;;;;4957968;28;20402;-83
2022/10/14 09:08:08;;;;;;;10.00;8.05;;;14.00;99.90;;;;;;4972916;28;20035;-84
2022/10/14 09:10:38;;;;;;;8.13;7.30;;;14.00;99.90;;;;;;4973476;28;20038;-84
2022/10/14 09:13:18;;;;;;;11.23;8.38;;;14.00;99.90;;;;;;4973091;28;20374;-84
2022/10/14 09:15:52;;;;;;;9.20;8.15;;;14.00;99.90;;;;;;4972230;28;20047;-84
2022/10/14 09:18:41;;;;;;;10.10;8.00;;;14.00;99.90;;;;;;4972970;28;20045;-84
2022/10/14 09:21:36;;;;;;;9.57;7.65;;;14.00;99.90;;;;;;4977004;28;20030;-84
2022/10/14 09:24:12;;;;;;;8.68;7.38;;;14.00;99.90;;;;;;4966929;28;20050;-84
2022/10/14 09:26:47;;;;;;;8.90;7.30;;;14.10;99.90;;;;;;4972291;28;20447;-84
2022/10/14 09:29:41;;;;;;;8.73;7.13;;;14.10;99.90;;;;;;4956855;28;20479;-85
2022/10/14 09:32:15;;;;;;;10.05;8.82;;;14.10;99.90;;;;;;4971743;28;20393;-84
2022/10/14 09:34:47;;;;;;;9.02;7.57;;;14.20;99.90;;;;;;4954458;28;20577;-84
2022/10/14 09:37:15;;;;;;;9.05;7.85;;;14.20;99.90;;;;;;4975089;28;20034;-84
2022/10/14 09:39:41;;;;;;;12.43;10.15;;;14.20;99.90;;;;;;4976295;28;20046;-84
2022/10/14 09:42:18;;;;;;;10.70;8.38;;;14.20;99.90;;;;;;4975499;28;20455;-84
2022/10/14 09:45:01;;;;;;;10.07;8.43;;;14.30;99.90;;;;;;4976126;28;20101;-83
2022/10/14 09:47:29;;;;;;;8.75;7.53;;;14.40;99.90;;;;;;4975763;28;20117;-84
2022/10/14 09:49:59;;;;;;;9.27;7.60;;;14.40;99.90;;;;;;4975807;28;20030;-83
2022/10/14 09:52:32;;;;;;;8.25;7.32;;;14.40;99.90;;;;;;4977534;28;20030;-84
2022/10/14 09:55:00;;;;;;;11.48;8.32;;;14.50;99.90;;;;;;4974693;28;20030;-83
2022/10/14 09:57:27;;;;;;;8.73;7.55;;;14.50;99.90;;;;;;4979794;28;20035;-84
2022/10/14 10:00:02;;;;;;;8.48;7.55;;;14.60;99.90;;;;;;4984665;28;20034;-84
2022/10/14 10:02:50;;;;;;;11.50;9.20;;;14.60;99.90;;;;;;4974784;28;20023;-82
2022/10/14 10:05:32;;;;;;;8.75;7.40;;;14.60;99.90;;;;;;4971270;28;20027;-82
2022/10/14 10:08:11;;;;;;;9.60;7.85;;;14.60;99.90;;;;;;4957475;28;20141;-82
2022/10/14 10:10:37;;;;;;;9.50;7.45;;;14.60;99.90;;;;;;4974558;28;20030;-83
2022/10/14 10:13:03;;;;;;;9.18;7.45;;;14.60;99.90;;;;;;4976433;28;20023;-83
2022/10/14 10:15:29;;;;;;;8.40;7.50;;;14.70;99.90;;;;;;4974974;28;20050;-83
2022/10/14 10:17:54;;;;;;;7.93;6.45;;;14.70;99.90;;;;;;4975130;28;20031;-83
2022/10/14 10:20:30;;;;;;;8.07;6.85;;;14.70;99.90;;;;;;4979784;28;20069;-84
2022/10/14 10:23:21;;;;;;;8.00;6.90;;;14.70;99.90;;;;;;4998793;28;20006;-83
2022/10/14 10:25:47;;;;;;;9.63;7.35;;;14.70;99.90;;;;;;4999625;28;20034;-84
2022/10/14 10:28:23;;;;;;;7.78;6.13;;;14.60;99.90;;;;;;4985337;28;20446;-83
2022/10/14 10:31:18;;;;;;;7.28;6.28;;;14.70;99.90;;;;;;4976924;28;20029;-83
2022/10/14 10:34:26;;;;;;;8.80;7.70;;;14.70;99.90;;;;;;4973379;28;20422;-84
2022/10/14 10:37:04;;;;;;;7.45;6.65;;;14.70;99.90;;;;;;4942144;28;20365;-85
2022/10/14 10:39:55;;;;;;;9.30;7.45;;;14.70;99.90;;;;;;4975291;28;20045;-85
2022/10/14 10:42:42;;;;;;;9.25;7.93;;;14.80;99.90;;;;;;4974395;28;20023;-85
2022/10/14 10:45:22;;;;;;;7.20;6.40;;;14.90;99.90;;;;;;4975442;28;20019;-85
2022/10/14 10:48:26;;;;;;;7.75;6.80;;;15.00;99.90;;;;;;4990876;28;20479;-85
2022/10/14 10:51:06;;;;;;;8.20;6.70;;;15.10;99.90;;;;;;4954407;28;20037;-85
2022/10/14 10:54:04;;;;;;;8.10;7.28;;;15.10;99.90;;;;;;4991884;28;20034;-85
2022/10/14 10:56:49;;;;;;;8.88;6.15;;;15.20;99.90;;;;;;4976382;28;20592;-84
2022/10/14 10:59:29;;;;;;;7.78;6.38;;;15.30;99.90;;;;;;4962032;28;20037;-83
2022/10/14 11:02:19;;;;;;;10.13;7.38;;;15.30;99.90;;;;;;4969059;28;20122;-85
2022/10/14 11:05:15;;;;;;;9.77;8.18;;;15.30;99.90;;;;;;4970212;28;20039;-85
2022/10/14 11:14:09;;;;;;;6.45;5.63;;;15.10;99.90;;;;;;4972464;28;20086;-86
2022/10/14 11:16:54;;;;;;;6.45;5.68;;;15.00;99.90;;;;;;4970952;28;20031;-85
2022/10/14 11:19:46;;;;;;;6.90;6.15;;;15.00;99.90;;;;;;4980950;28;20035;-85
2022/10/14 11:22:37;;;;;;;7.65;5.93;;;15.00;99.90;;;;;;4967950;28;20034;-85
2022/10/14 11:25:32;;;;;;;8.70;7.75;;;15.10;99.90;;;;;;4971839;28;20026;-86
2022/10/14 11:28:17;;;;;;;8.63;7.18;;;15.00;99.90;;;;;;4962343;28;20034;-86
2022/10/14 11:30:56;;;;;;;7.60;6.80;;;15.00;99.90;;;;;;4966265;28;20094;-86
2022/10/14 11:34:04;;;;;;;7.90;7.10;;;15.00;99.90;;;;;;4961791;28;20026;-86
2022/10/14 11:36:55;;;;;;;7.63;6.28;;;15.00;99.90;;;;;;4961015;28;20027;-85
2022/10/14 11:39:29;;;;;;;9.10;6.10;;;15.00;99.90;;;;;;4965798;28;20037;-87
2022/10/14 11:42:12;;;;;;;9.23;7.25;;;15.00;99.90;;;;;;4967810;28;20538;-85
2022/10/14 11:44:41;;;;;;;7.07;6.30;;;15.00;99.90;;;;;;4970619;28;20039;-85
2022/10/14 11:47:22;;;;;;;7.13;6.13;;;15.00;99.90;;;;;;4970138;28;20352;-85
2022/10/14 11:50:00;;;;;;;8.07;5.43;;;15.00;99.90;;;;;;4966159;28;20481;-86
2022/10/14 11:52:50;;;;;;;7.78;5.43;;;15.10;99.90;;;;;;4972037;28;20031;-85
2022/10/14 11:55:25;;;;;;;6.80;5.85;;;15.10;99.90;;;;;;4971940;28;20407;-86
2022/10/14 11:57:57;;;;;;;7.97;6.35;;;15.10;99.90;;;;;;4984494;28;20038;-85
2022/10/14 12:00:28;;;;;;;8.77;5.70;;;15.10;99.90;;;;;;4969217;28;20034;-85
2022/10/14 12:03:12;;;;;;;7.05;5.03;;;15.10;99.90;;;;;;4960722;28;20046;-85
2022/10/14 12:06:23;;;;;;;5.32;4.40;;;15.10;99.90;;;;;;4968578;28;20033;-86
2022/10/14 12:08:55;;;;;;;5.70;4.32;;;15.20;99.90;;;;;;4904144;29;20068;-85
2022/10/14 12:11:40;;;;;;;5.80;4.55;;;15.10;99.90;;;;;;4957507;28;20117;-87
2022/10/14 12:14:23;;;;;;;5.35;4.13;;;15.20;99.90;;;;;;4985217;28;20043;-85
2022/10/14 12:16:50;;;;;;;6.40;4.65;;;15.10;99.90;;;;;;4970635;28;20022;-85
2022/10/14 12:19:27;;;;;;;5.25;3.83;;;15.10;99.90;;;;;;4970654;28;20398;-85
2022/10/14 12:22:23;;;;;;;3.97;3.33;;;15.10;99.90;;;;;;4988617;28;20027;-82
2022/10/14 12:24:54;;;;;;;3.63;3.17;;;15.20;99.90;;;;;;4981462;28;20097;-81
2022/10/14 12:27:27;;;;;;;5.60;3.05;;;15.20;99.90;;;;;;4994681;28;20030;-83
2022/10/14 12:29:57;;;;;;;4.00;3.40;;;15.20;99.90;;;;;;4972635;28;20066;-85
2022/10/14 12:32:30;;;;;;;3.90;3.10;;;15.20;99.90;;;;;;4951034;28;20566;-85
2022/10/14 12:35:00;;;;;;;4.18;3.20;;;15.20;99.90;;;;;;4966462;28;20027;-85
2022/10/14 12:37:36;;;;;;;4.38;3.30;;;15.30;99.90;;;;;;4967176;28;20038;-84
2022/10/14 12:40:11;;;;;;;4.30;3.00;;;15.30;99.90;;;;;;4981712;28;20467;-84
2022/10/14 12:42:46;;;;;;;4.15;2.80;;;15.30;99.90;;;;;;4970329;28;20023;-85
2022/10/14 12:45:20;;;;;;;3.72;2.95;;;15.50;99.90;;;;;;4970328;28;20035;-84
2022/10/14 12:47:46;;;;;;;3.20;2.45;;;15.50;99.90;;;;;;4969054;28;20507;-85
2022/10/14 12:50:35;;;;;;;3.53;2.92;;;15.60;99.90;;;;;;4969045;28;20070;-84
2022/10/14 12:53:05;;;;;;;3.22;2.65;;;15.60;99.90;;;;;;4966761;28;20173;-85
2022/10/14 12:55:37;;;;;;;3.60;2.75;;;15.60;99.90;;;;;;4970336;28;20027;-86
2022/10/14 12:58:07;;;;;;;2.92;2.30;;;15.50;99.90;;;;;;4963569;28;20029;-84
2022/10/14 13:00:40;;;;;;;2.88;2.30;;;15.40;99.90;;;;;;4970099;28;20085;-85
2022/10/14 13:03:17;;;;;;;;;;;15.40;99.90;;;;;;4960680;28;20034;-85
2022/10/14 13:05:44;;;;;;;4.03;2.95;;;15.40;99.90;;;;;;4963157;28;19914;-85